Dades meteomassalio
Diari Summary for Febrer 23, 2018 Units:  Metric    English   Both
« Previous Day
Next Day »
Diari Semanal Mensual Anual Personalitzat
  Maxima: Minima: Mijana:
Temperatura: -17.8 °C -19.3 °C -15.9 °C
Rosada: -17.8 °C -21.2 °C -19.9 °C
Humitat: Humidity % 39 % 61 %
Velocitat del vent: 0 km/h 0 km/h 25.6 km/h
Racha vent: 0 km/h - -
Vent:- - WNW
Pressio: 0 hPa 34164.7 hPa -
Pluja: 0 mm    
Historical Graphs
 
 
Tabular Data for Febrer 23, 2018
Time Temperature Dew Point Pressure Wind Wind Speed Wind Gust Humidity Rainfall Rate (Hourly) solar Conditions
-17.8 °C -17.8 °C 0 hPa Calm     Humidity % 0 mm SolarRadiationWatts/m^2 W/m2 Conditions
00:04 -16.6 °C -20.9 °C 34222.3 hPa NW 41.7 km/h 41.7 km/h 56 % 0 mm 0.0 W/m2 CLR
00:09 -16.6 °C -20.8 °C 34222.3 hPa NW 50.7 km/h 50.7 km/h 57 % 0 mm 0.0 W/m2 CLR
00:14 -16.6 °C -20.8 °C 34222.3 hPa WNW 53.6 km/h 53.6 km/h 57 % 0 mm 0.0 W/m2 CLR
00:19 -16.6 °C -20.7 °C 34222.3 hPa NW 47.6 km/h 47.6 km/h 58 % 0 mm 0.0 W/m2 CLR
00:24 -16.6 °C -20.7 °C 34222.3 hPa NW 54.4 km/h 54.4 km/h 58 % 0 mm 0.0 W/m2 CLR
00:29 -16.6 °C -20.6 °C 34222.3 hPa WNW 44.7 km/h 44.7 km/h 59 % 0 mm 0.0 W/m2 CLR
00:34 -16.6 °C -20.6 °C 34222.3 hPa WNW 38.8 km/h 38.8 km/h 59 % 0 mm 0.0 W/m2 CLR
00:39 -16.6 °C -20.4 °C 34222.3 hPa West 36.2 km/h 36.2 km/h 60 % 0 mm 0.0 W/m2 CLR
00:44 -16.8 °C -20.7 °C 34222.3 hPa WNW 47.6 km/h 47.6 km/h 60 % 0 mm 0.0 W/m2 CLR
00:49 -16.8 °C -20.7 °C 34222.3 hPa WNW 41.7 km/h 41.7 km/h 60 % 0 mm 0.0 W/m2 CLR
00:54 -16.6 °C -20.3 °C 34222.3 hPa WNW 41.7 km/h 41.7 km/h 61 % 0 mm 0.0 W/m2 CLR
00:59 -16.8 °C -20.6 °C 34222.3 hPa WNW 59.5 km/h 59.5 km/h 61 % 0 mm 0.0 W/m2 CLR
01:04 -16.8 °C -20.6 °C 34222.3 hPa WNW 50.7 km/h 50.7 km/h 61 % 0 mm 0.0 W/m2 CLR
01:09 -16.6 °C -20.3 °C 34212.1 hPa West 47.6 km/h 47.6 km/h 61 % 0 mm 0.0 W/m2 CLR
01:14 -16.6 °C -20.3 °C 34222.3 hPa NW 47.6 km/h 47.6 km/h 61 % 0 mm 0.0 W/m2 CLR
01:19 -16.8 °C -20.4 °C 34222.3 hPa NW 41.7 km/h 41.7 km/h 62 % 0 mm 0.0 W/m2 CLR
01:24 -16.6 °C -20.2 °C 34222.3 hPa WNW 49.2 km/h 49.2 km/h 62 % 0 mm 0.0 W/m2 CLR
01:29 -16.6 °C -20.2 °C 34222.3 hPa WNW 53.6 km/h 53.6 km/h 62 % 0 mm 0.0 W/m2 CLR
01:34 -16.6 °C -20.2 °C 34222.3 hPa NW 38.8 km/h 38.8 km/h 62 % 0 mm 0.0 W/m2 CLR
01:39 -16.6 °C -20.2 °C 34222.3 hPa WNW 41.4 km/h 41.4 km/h 62 % 0 mm 0.0 W/m2 CLR
01:44 -16.8 °C -20.4 °C 34222.3 hPa WNW 41.7 km/h 41.7 km/h 62 % 0 mm 0.0 W/m2 CLR
01:49 -16.8 °C -20.3 °C 34212.1 hPa WNW 29.8 km/h 30.3 km/h 63 % 0 mm 0.0 W/m2 CLR
01:54 -16.8 °C -20.3 °C 34212.1 hPa WNW 38.8 km/h 38.8 km/h 63 % 0 mm 0.0 W/m2 CLR
01:59 -16.8 °C -20.3 °C 34222.3 hPa WNW 26.9 km/h 26.9 km/h 63 % 0 mm 0.0 W/m2 CLR
02:04 -16.8 °C -20.3 °C 34222.3 hPa West 29.8 km/h 29.8 km/h 63 % 0 mm 0.0 W/m2 CLR
02:10 -16.8 °C -20.2 °C 34222.3 hPa NW 35.7 km/h 35.7 km/h 64 % 0 mm 0.0 W/m2 CLR
02:15 -16.8 °C -20.2 °C 34222.3 hPa WNW 18.2 km/h 18.2 km/h 64 % 0 mm 0.0 W/m2 CLR
02:20 -16.8 °C -20.2 °C 34222.3 hPa West 29.8 km/h 29.8 km/h 64 % 0 mm 0.0 W/m2 CLR
02:25 -16.8 °C -20.1 °C 34222.3 hPa West 29.8 km/h 29.8 km/h 65 % 0 mm 0.0 W/m2 CLR
02:30 -16.8 °C -20.1 °C 34222.3 hPa West 29.8 km/h 29.8 km/h 65 % 0 mm 0.0 W/m2 CLR
02:35 -16.8 °C -20.1 °C 34222.3 hPa WNW 25.9 km/h 25.9 km/h 65 % 0 mm 0.0 W/m2 CLR
02:40 -16.8 °C -20.1 °C 34222.3 hPa West 29.8 km/h 29.8 km/h 65 % 0 mm 0.0 W/m2 CLR
02:45 -16.8 °C -20 °C 34222.3 hPa West 38.8 km/h 38.8 km/h 66 % 0 mm 0.0 W/m2 CLR
02:50 -16.8 °C -20 °C 34222.3 hPa West 29.8 km/h 29.8 km/h 66 % 0 mm 0.0 W/m2 CLR
02:55 -16.8 °C -19.9 °C 34222.3 hPa West 29.8 km/h 29.8 km/h 67 % 0 mm 0.0 W/m2 CLR
03:00 -16.8 °C -19.9 °C 34222.3 hPa WNW 31.1 km/h 31.1 km/h 67 % 0 mm 0.0 W/m2 CLR
03:05 -16.8 °C -19.9 °C 34222.3 hPa WNW 35.7 km/h 35.7 km/h 67 % 0 mm 0.0 W/m2 CLR
03:10 -16.8 °C -19.9 °C 34222.3 hPa West 26.9 km/h 26.9 km/h 67 % 0 mm 0.0 W/m2 CLR
03:15 -17.2 °C -20.1 °C 34212.1 hPa West 23.8 km/h 23.8 km/h 68 % 0 mm 0.0 W/m2 CLR
03:20 -17.2 °C -20.1 °C 34222.3 hPa West 18.2 km/h 18.2 km/h 68 % 0 mm 0.0 W/m2 CLR
03:25 -17.2 °C -20.1 °C 34212.1 hPa WNW 23.8 km/h 23.8 km/h 68 % 0 mm 0.0 W/m2 CLR
03:30 -17.2 °C -19.9 °C 34212.1 hPa WNW 26.9 km/h 26.9 km/h 69 % 0 mm 0.0 W/m2 CLR
03:35 -17.4 °C -20.3 °C 34212.1 hPa West 31.1 km/h 31.1 km/h 69 % 0 mm 0.0 W/m2 CLR
03:40 -17.4 °C -20.3 °C 34212.1 hPa West 35.7 km/h 35.7 km/h 69 % 0 mm 0.0 W/m2 CLR
03:45 -17.4 °C -20.3 °C 34212.1 hPa WNW 26.9 km/h 26.9 km/h 69 % 0 mm 0.0 W/m2 CLR
03:50 -17.4 °C -20.2 °C 34212.1 hPa WNW 29.8 km/h 29.8 km/h 70 % 0 mm 0.0 W/m2 CLR
03:55 -17.4 °C -20.2 °C 34212.1 hPa WNW 35.7 km/h 35.7 km/h 70 % 0 mm 0.0 W/m2 CLR
04:00 -17.4 °C -20.2 °C 34198.6 hPa West 32.8 km/h 32.8 km/h 70 % 0 mm 0.0 W/m2 CLR
04:05 -17.4 °C -20.2 °C 34198.6 hPa WSW 32.8 km/h 32.8 km/h 70 % 0 mm 0.0 W/m2 CLR
04:10 -17.4 °C -20.2 °C 34198.6 hPa WNW 29.8 km/h 29.8 km/h 70 % 0 mm 0.0 W/m2 CLR
04:15 -17.4 °C -20.3 °C 34198.6 hPa West 15 km/h 15 km/h 69 % 0 mm 0.0 W/m2 CLR
04:20 -17.4 °C -20.3 °C 34212.1 hPa West 23.8 km/h 23.8 km/h 69 % 0 mm 0.0 W/m2 CLR
04:25 -17.4 °C -20.2 °C 34198.6 hPa West 20.9 km/h 20.9 km/h 70 % 0 mm 0.0 W/m2 CLR
04:30 -17.4 °C -20.2 °C 34198.6 hPa West 17.9 km/h 17.9 km/h 70 % 0 mm 0.0 W/m2 CLR
04:35 -17.8 °C -20.4 °C 34198.6 hPa West 23.8 km/h 23.8 km/h 70 % 0 mm 0.0 W/m2 CLR
04:40 -17.8 °C -20.4 °C 34198.6 hPa West 25.9 km/h 25.9 km/h 70 % 0 mm 0.0 W/m2 CLR
04:45 -17.8 °C -20.4 °C 34198.6 hPa West 29.8 km/h 29.8 km/h 70 % 0 mm 0.0 W/m2 CLR
04:50 -17.8 °C -20.3 °C 34198.6 hPa West 29.8 km/h 29.8 km/h 71 % 0 mm 0.0 W/m2 CLR
04:55 -17.8 °C -20.3 °C 34212.1 hPa WNW 23.8 km/h 23.8 km/h 71 % 0 mm 0.0 W/m2 CLR
05:00 -17.8 °C -20.3 °C 34212.1 hPa West 20.8 km/h 20.8 km/h 71 % 0 mm 0.0 W/m2 CLR
05:05 -17.8 °C -20.3 °C 34212.1 hPa West 23.8 km/h 23.8 km/h 71 % 0 mm 0.0 W/m2 CLR
05:10 -17.8 °C -20.3 °C 34212.1 hPa West 29.8 km/h 29.8 km/h 71 % 0 mm 0.0 W/m2 CLR
05:15 -17.8 °C -20.3 °C 34212.1 hPa West 17.9 km/h 17.9 km/h 71 % 0 mm 0.0 W/m2 CLR
05:20 -18.1 °C -20.6 °C 34212.1 hPa West 20.9 km/h 20.9 km/h 72 % 0 mm 0.0 W/m2 CLR
05:25 -18.1 °C -20.6 °C 34212.1 hPa West 26.9 km/h 26.9 km/h 72 % 0 mm 0.0 W/m2 CLR
05:30 -18.1 °C -20.6 °C 34212.1 hPa West 25.9 km/h 25.9 km/h 72 % 0 mm 0.0 W/m2 CLR
05:35 -18.4 °C -20.8 °C 34212.1 hPa West 26.9 km/h 26.9 km/h 72 % 0 mm 0.0 W/m2 CLR
05:40 -18.1 °C -20.6 °C 34212.1 hPa West 29.8 km/h 29.8 km/h 72 % 0 mm 0.0 W/m2 CLR
05:45 -18.1 °C -20.6 °C 34212.1 hPa West 29.8 km/h 29.8 km/h 72 % 0 mm 0.0 W/m2 CLR
05:50 -18.1 °C -20.6 °C 34212.1 hPa West 29.8 km/h 29.8 km/h 72 % 0 mm 0.0 W/m2 CLR
05:55 -18.1 °C -20.4 °C 34198.6 hPa West 29.8 km/h 29.8 km/h 73 % 0 mm 0.0 W/m2 CLR
06:00 -18.1 °C -20.4 °C 34198.6 hPa West 29.8 km/h 29.8 km/h 73 % 0 mm 0.0 W/m2 CLR
06:05 -18.1 °C -20.4 °C 34198.6 hPa West 29.8 km/h 29.8 km/h 73 % 0 mm 0.0 W/m2 CLR
06:10 -18.1 °C -20.4 °C 34212.1 hPa West 23.8 km/h 23.8 km/h 73 % 0 mm 0.0 W/m2 CLR
06:15 -17.8 °C -20.2 °C 34212.1 hPa West 29.8 km/h 29.8 km/h 73 % 0 mm 0.0 W/m2 CLR
06:20 -17.8 °C -20.2 °C 34198.6 hPa West 26.9 km/h 26.9 km/h 73 % 0 mm 0.0 W/m2 CLR
06:25 -17.8 °C -20.2 °C 34212.1 hPa West 23.8 km/h 23.8 km/h 73 % 0 mm 0.0 W/m2 CLR
06:30 -17.8 °C -20.2 °C 34212.1 hPa West 25.9 km/h 25.9 km/h 73 % 0 mm 0.0 W/m2 CLR
06:35 -17.8 °C -20.2 °C 34212.1 hPa West 29.8 km/h 29.8 km/h 73 % 0 mm 0.0 W/m2 CLR
06:40 -17.8 °C -20.2 °C 34212.1 hPa West 23.8 km/h 23.8 km/h 73 % 0 mm 0.0 W/m2 CLR
06:45 -17.8 °C -20.2 °C 34212.1 hPa West 29.8 km/h 29.8 km/h 73 % 0 mm 0.0 W/m2 CLR
06:50 -18.1 °C -20.4 °C 34212.1 hPa WNW 23.8 km/h 23.8 km/h 73 % 0 mm 0.0 W/m2 CLR
06:55 -18.1 °C -20.6 °C 34212.1 hPa WNW 29.8 km/h 29.8 km/h 72 % 0 mm 0.0 W/m2 CLR
07:00 -18.1 °C -20.7 °C 34212.1 hPa WNW 26.9 km/h 26.9 km/h 71 % 0 mm 0.0 W/m2 CLR
07:05 -18.1 °C -20.7 °C 34212.1 hPa West 35.7 km/h 35.7 km/h 71 % 0 mm 0.0 W/m2 CLR
07:10 -18.1 °C -20.7 °C 34212.1 hPa WSW 31.1 km/h 31.1 km/h 71 % 0 mm 0.0 W/m2 CLR
07:15 -17.8 °C -20.3 °C 34212.1 hPa West 18.2 km/h 18.2 km/h 71 % 0 mm 0.0 W/m2 CLR
07:20 -17.8 °C -20.2 °C 34212.1 hPa West 41.7 km/h 41.7 km/h 72 % 0 mm 0.0 W/m2 CLR
07:25 -17.8 °C -20.2 °C 34212.1 hPa NW 26.9 km/h 26.9 km/h 72 % 0 mm 0.0 W/m2 CLR
07:30 -17.8 °C -20.2 °C 34212.1 hPa West 35.7 km/h 35.7 km/h 72 % 0 mm 0.0 W/m2 CLR
07:35 -17.8 °C -20.2 °C 34212.1 hPa WNW 41.7 km/h 41.7 km/h 72 % 0 mm 0.0 W/m2 OVC
07:40 -18.1 °C -20.6 °C 34212.1 hPa WNW 29.8 km/h 29.8 km/h 72 % 0 mm 0.0 W/m2 OVC
07:45 -18.1 °C -20.6 °C 34212.1 hPa West 32.8 km/h 32.8 km/h 72 % 0 mm 5.0 W/m2 OVC
07:50 -18.1 °C -20.7 °C 34212.1 hPa WNW 29.8 km/h 29.8 km/h 71 % 0 mm 9.0 W/m2 BKN
07:55 -18.1 °C -20.7 °C 34222.3 hPa WNW 29.8 km/h 29.8 km/h 71 % 0 mm 12.0 W/m2 BKN
08:00 -17.8 °C -20.3 °C 34212.1 hPa WNW 38.8 km/h 38.8 km/h 71 % 0 mm 16.0 W/m2 BKN
08:05 -17.8 °C -20.4 °C 34222.3 hPa WNW 33.6 km/h 33.6 km/h 70 % 0 mm 19.0 W/m2 BKN
08:10 -17.8 °C -20.4 °C 34222.3 hPa WNW 32.8 km/h 32.8 km/h 70 % 0 mm 25.0 W/m2 BKN
08:15 -17.8 °C -20.4 °C 34222.3 hPa WNW 29.8 km/h 29.8 km/h 70 % 0 mm 28.0 W/m2 BKN
08:20 -17.4 °C -20.2 °C 34222.3 hPa West 17.9 km/h 17.9 km/h 70 % 0 mm 42.0 W/m2 BKN
08:25 -17.4 °C -20.1 °C 34222.3 hPa West 23.8 km/h 23.8 km/h 71 % 0 mm 47.0 W/m2 SCT
08:30 -17.4 °C -20.1 °C 34222.3 hPa WNW 11.9 km/h 11.9 km/h 71 % 0 mm 63.0 W/m2 SCT
08:35 -17.4 °C -20.1 °C 34222.3 hPa WNW 23.8 km/h 23.8 km/h 71 % 0 mm 77.0 W/m2 FEW
08:40 -17.2 °C -19.9 °C 34222.3 hPa NW 38.8 km/h 38.8 km/h 69 % 0 mm 91.0 W/m2 CLR
08:45 -17.2 °C -20.1 °C 34235.8 hPa NW 35.7 km/h 35.7 km/h 68 % 0 mm 109.0 W/m2 CLR
08:50 -17.2 °C -20.2 °C 34222.3 hPa WNW 29.8 km/h 29.8 km/h 67 % 0 mm 113.0 W/m2 CLR
08:55 -16.8 °C -19.9 °C 34235.8 hPa WNW 29.8 km/h 29.8 km/h 67 % 0 mm 139.0 W/m2 CLR
09:00 -16.8 °C -20 °C 34235.8 hPa WNW 38.8 km/h 38.8 km/h 66 % 0 mm 151.0 W/m2 CLR
09:05 -16.8 °C -20.1 °C 34235.8 hPa WNW 33.6 km/h 33.6 km/h 65 % 0 mm 153.0 W/m2 CLR
09:10 -16.8 °C -20.1 °C 34235.8 hPa West 41.7 km/h 41.7 km/h 65 % 0 mm 190.0 W/m2 CLR
09:15 -16.6 °C -19.9 °C 34235.8 hPa WNW 35.7 km/h 35.7 km/h 64 % 0 mm 206.0 W/m2 CLR
09:20 -16.6 °C -19.9 °C 34235.8 hPa NNW 36.2 km/h 36.2 km/h 64 % 0 mm 225.0 W/m2 CLR
09:25 -16.2 °C -19.7 °C 34235.8 hPa WNW 29.8 km/h 29.8 km/h 64 % 0 mm 241.0 W/m2 CLR
09:31 -16.2 °C -19.8 °C 34235.8 hPa NW 26.9 km/h 26.9 km/h 63 % 0 mm 260.0 W/m2 CLR
09:35 -16.2 °C -19.8 °C 34235.8 hPa WNW 29.8 km/h 29.8 km/h 63 % 0 mm 272.0 W/m2 CLR
09:41 -15.9 °C -19.6 °C 34235.8 hPa NW 32.8 km/h 32.8 km/h 62 % 0 mm 287.0 W/m2 CLR
09:46 -15.9 °C -19.5 °C 34235.8 hPa NNW 29.8 km/h 29.8 km/h 63 % 0 mm 299.0 W/m2 CLR
09:51 -15.9 °C -19.5 °C 34235.8 hPa NNW 33.6 km/h 33.6 km/h 63 % 0 mm 316.0 W/m2 CLR
09:56 -15.9 °C -19.6 °C 34246 hPa NW 38.8 km/h 38.8 km/h 62 % 0 mm 332.0 W/m2 CLR
10:01 -15.9 °C -19.7 °C 34246 hPa WNW 44.7 km/h 44.7 km/h 61 % 0 mm 348.0 W/m2 CLR
10:06 -15.6 °C -19.4 °C 34246 hPa NW 47.6 km/h 47.6 km/h 61 % 0 mm 359.0 W/m2 CLR
10:11 -15.6 °C -19.4 °C 34246 hPa WNW 46.7 km/h 46.7 km/h 61 % 0 mm 371.0 W/m2 CLR
10:16 -15.6 °C -19.4 °C 34246 hPa NW 41.7 km/h 41.7 km/h 61 % 0 mm 390.0 W/m2 CLR
10:21 -15.6 °C -19.6 °C 34246 hPa WNW 44.7 km/h 44.7 km/h 60 % 0 mm 396.0 W/m2 CLR
10:26 -15.3 °C -19.3 °C 34246 hPa NW 35.7 km/h 35.7 km/h 60 % 0 mm 415.0 W/m2 CLR
10:31 -15.3 °C -19.4 °C 34246 hPa NW 38.8 km/h 38.8 km/h 59 % 0 mm 420.0 W/m2 CLR
10:36 -15.3 °C -19.4 °C 34246 hPa NW 29.8 km/h 29.8 km/h 59 % 0 mm 441.0 W/m2 CLR
10:41 -15.3 °C -19.5 °C 34246 hPa North 36.2 km/h 36.2 km/h 58 % 0 mm 455.0 W/m2 CLR
10:46 -15 °C -19.2 °C 34246 hPa NW 35.7 km/h 35.7 km/h 58 % 0 mm 464.0 W/m2 CLR
10:51 -15 °C -19.3 °C 34246 hPa NW 41.7 km/h 41.7 km/h 57 % 0 mm 478.0 W/m2 CLR
10:56 -15 °C -19.3 °C 34235.8 hPa NW 47.6 km/h 47.6 km/h 57 % 0 mm 487.0 W/m2 CLR
11:01 -14.7 °C -19.1 °C 34246 hPa WNW 44.7 km/h 44.7 km/h 57 % 0 mm 497.0 W/m2 CLR
11:06 -14.7 °C -19.2 °C 34246 hPa NW 38.8 km/h 38.8 km/h 56 % 0 mm 506.0 W/m2 CLR
11:11 -14.4 °C -19.2 °C 34235.8 hPa NW 44.7 km/h 44.7 km/h 54 % 0 mm 522.0 W/m2 CLR
11:16 -14.7 °C -19.5 °C 34246 hPa NNW 44.7 km/h 44.7 km/h 54 % 0 mm 534.0 W/m2 CLR
11:21 -14.4 °C -19.1 °C 34246 hPa NNW 32.8 km/h 32.8 km/h 55 % 0 mm 536.0 W/m2 CLR
11:26 -14.4 °C -19.2 °C 34246 hPa NNW 41.7 km/h 41.7 km/h 54 % 0 mm 554.0 W/m2 CLR
11:31 -14.1 °C -18.9 °C 34235.8 hPa NW 35.7 km/h 35.7 km/h 54 % 0 mm 561.0 W/m2 CLR
11:36 -14.1 °C -18.9 °C 34235.8 hPa NNW 20.9 km/h 20.9 km/h 54 % 0 mm 573.0 W/m2 CLR
11:41 -14.1 °C -19.2 °C 34235.8 hPa WNW 35.7 km/h 35.7 km/h 52 % 0 mm 578.0 W/m2 CLR
11:46 -14.1 °C -19.3 °C 34235.8 hPa WNW 50.7 km/h 50.7 km/h 51 % 0 mm 587.0 W/m2 CLR
11:51 -14.1 °C -19.2 °C 34235.8 hPa NW 38.8 km/h 38.8 km/h 52 % 0 mm 596.0 W/m2 CLR
11:56 -14.1 °C -19.5 °C 34235.8 hPa North 35.7 km/h 35.7 km/h 50 % 0 mm 599.0 W/m2 CLR
12:01 -13.8 °C -19.3 °C 34235.8 hPa NNW 31.1 km/h 31.1 km/h 49 % 0 mm 596.0 W/m2 CLR
12:06 -13.8 °C -19.3 °C 34235.8 hPa NW 29.8 km/h 29.8 km/h 49 % 0 mm 612.0 W/m2 CLR
12:11 -13.8 °C -19.3 °C 34235.8 hPa NW 32.8 km/h 32.8 km/h 49 % 0 mm 613.0 W/m2 CLR
12:16 -13.4 °C -19.2 °C 34235.8 hPa NW 41.7 km/h 41.7 km/h 48 % 0 mm 628.0 W/m2 CLR
12:21 -13.4 °C -19.3 °C 34235.8 hPa NNW 44.7 km/h 44.7 km/h 47 % 0 mm 629.0 W/m2 CLR
12:26 -13.4 °C -19.5 °C 34235.8 hPa NW 44.7 km/h 44.7 km/h 46 % 0 mm 631.0 W/m2 CLR
12:31 -13.4 °C -19.5 °C 34235.8 hPa NNW 50.7 km/h 50.7 km/h 46 % 0 mm 636.0 W/m2 CLR
12:36 -13.4 °C -19.7 °C 34222.3 hPa NNW 56.6 km/h 56.6 km/h 45 % 0 mm 638.0 W/m2 CLR
12:41 -13.2 °C -19.4 °C 34222.3 hPa NNW 46.7 km/h 46.7 km/h 45 % 0 mm 638.0 W/m2 CLR
12:46 -12.8 °C -19.3 °C 34222.3 hPa North 32.8 km/h 32.8 km/h 44 % 0 mm 645.0 W/m2 CLR
12:51 -12.8 °C -19.1 °C 34222.3 hPa NNW 35.7 km/h 35.7 km/h 45 % 0 mm 645.0 W/m2 CLR
12:56 -12.8 °C -19.3 °C 34222.3 hPa NNW 38.8 km/h 38.8 km/h 44 % 0 mm 654.0 W/m2 CLR
13:01 -12.8 °C -19.6 °C 34212.1 hPa NW 47.6 km/h 47.6 km/h 42 % 0 mm 652.0 W/m2 CLR
13:06 -13.2 °C -19.8 °C 34212.1 hPa NW 46.7 km/h 46.7 km/h 43 % 0 mm 663.0 W/m2 CLR
13:11 -12.8 °C -19.6 °C 34212.1 hPa NW 31.1 km/h 31.1 km/h 42 % 0 mm 654.0 W/m2 CLR
13:16 -12.8 °C -19.6 °C 34198.6 hPa NW 41.7 km/h 41.7 km/h 42 % 0 mm 661.0 W/m2 CLR
13:21 -12.8 °C -19.8 °C 34198.6 hPa NW 35.7 km/h 35.7 km/h 41 % 0 mm 661.0 W/m2 CLR
13:26 -12.8 °C -19.8 °C 34198.6 hPa WNW 38.8 km/h 38.8 km/h 41 % 0 mm 654.0 W/m2 CLR
13:31 -13.2 °C -20.1 °C 34188.4 hPa NW 31.1 km/h 31.1 km/h 41 % 0 mm 652.0 W/m2 CLR
13:36 -12.8 °C -20 °C 34188.4 hPa WNW 23.8 km/h 23.8 km/h 40 % 0 mm 652.0 W/m2 CLR
13:41 -12.8 °C -19.8 °C 34188.4 hPa NNW 36.2 km/h 36.2 km/h 41 % 0 mm 650.0 W/m2 CLR
13:46 -12.6 °C -19.7 °C 34188.4 hPa NNW 15 km/h 15 km/h 40 % 0 mm 647.0 W/m2 CLR
13:51 -12.6 °C -19.7 °C 34188.4 hPa NW 35.7 km/h 35.7 km/h 40 % 0 mm 649.0 W/m2 CLR
13:56 -12.6 °C -19.7 °C 34188.4 hPa West 41.7 km/h 41.7 km/h 40 % 0 mm 642.0 W/m2 CLR
14:01 -12.6 °C -19.7 °C 34188.4 hPa NNW 32.8 km/h 32.8 km/h 40 % 0 mm 635.0 W/m2 CLR
14:06 -12.6 °C -19.6 °C 34188.4 hPa NW 38.8 km/h 38.8 km/h 41 % 0 mm 638.0 W/m2 CLR
14:11 -12.6 °C -19.6 °C 34188.4 hPa North 26.9 km/h 26.9 km/h 41 % 0 mm 633.0 W/m2 CLR
14:16 -12.2 °C -19.6 °C 34188.4 hPa North 33.6 km/h 33.6 km/h 39 % 0 mm 622.0 W/m2 CLR
14:21 -12.2 °C -19.4 °C 34178.3 hPa NW 41.7 km/h 41.7 km/h 40 % 0 mm 624.0 W/m2 CLR
14:26 -12.2 °C -19.4 °C 34178.3 hPa NNW 26.9 km/h 26.9 km/h 40 % 0 mm 612.0 W/m2 CLR
14:31 -12.2 °C -19.3 °C 34178.3 hPa NW 29.8 km/h 29.8 km/h 41 % 0 mm 603.0 W/m2 CLR
14:36 -12.2 °C -19.1 °C 34178.3 hPa North 38.8 km/h 38.8 km/h 42 % 0 mm 592.0 W/m2 CLR
14:41 -12.2 °C -18.9 °C 34178.3 hPa North 32.8 km/h 32.8 km/h 43 % 0 mm 589.0 W/m2 CLR
14:46 -12.2 °C -19.4 °C 34178.3 hPa North 35.7 km/h 35.7 km/h 40 % 0 mm 580.0 W/m2 CLR
14:51 -12.2 °C -19.1 °C 34178.3 hPa NW 33.6 km/h 33.6 km/h 42 % 0 mm 571.0 W/m2 CLR
14:56 -12.2 °C -19.1 °C 34178.3 hPa NNW 41.7 km/h 41.7 km/h 42 % 0 mm 568.0 W/m2 CLR
15:01 -12.2 °C -19.3 °C 34178.3 hPa NW 29.8 km/h 29.8 km/h 41 % 0 mm 554.0 W/m2 CLR
15:06 -12.6 °C -19.7 °C 34178.3 hPa NNW 23.8 km/h 23.8 km/h 40 % 0 mm 543.0 W/m2 CLR
15:11 -12.6 °C -19.2 °C 34178.3 hPa NNW 23.8 km/h 23.8 km/h 43 % 0 mm 536.0 W/m2 CLR
15:16 -12.2 °C -18.9 °C 34178.3 hPa NNE 31.1 km/h 31.1 km/h 43 % 0 mm 520.0 W/m2 CLR
15:21 -12.2 °C -18.7 °C 34178.3 hPa NNW 29.8 km/h 29.8 km/h 44 % 0 mm 517.0 W/m2 CLR
15:26 -12.6 °C -19.2 °C 34178.3 hPa North 23.8 km/h 23.8 km/h 43 % 0 mm 499.0 W/m2 CLR
15:31 -12.6 °C -19.2 °C 34178.3 hPa North 28.5 km/h 28.5 km/h 43 % 0 mm 499.0 W/m2 CLR
15:36 -12.6 °C -19.6 °C 34164.7 hPa WNW 17.9 km/h 17.9 km/h 41 % 0 mm 478.0 W/m2 CLR
15:41 -12.6 °C -19 °C 34164.7 hPa North 23.8 km/h 23.8 km/h 44 % 0 mm 471.0 W/m2 CLR
15:46 -12.2 °C -18.7 °C 34164.7 hPa North 29.8 km/h 29.8 km/h 44 % 0 mm 464.0 W/m2 CLR
15:51 -12.2 °C -18.9 °C 34164.7 hPa NW 38.8 km/h 38.8 km/h 43 % 0 mm 445.0 W/m2 CLR
15:56 -12.6 °C -19.2 °C 34164.7 hPa NW 17.9 km/h 17.9 km/h 43 % 0 mm 431.0 W/m2 CLR
16:01 -12.6 °C -19 °C 34164.7 hPa NNW 31.1 km/h 31.1 km/h 44 % 0 mm 420.0 W/m2 CLR
16:06 -12.6 °C -19 °C 34164.7 hPa North 29.8 km/h 29.8 km/h 44 % 0 mm 410.0 W/m2 CLR
16:11 -12.6 °C -19 °C 34164.7 hPa NW 41.7 km/h 41.7 km/h 44 % 0 mm 397.0 W/m2 CLR
16:16 -12.6 °C -18.8 °C 34164.7 hPa NNW 20.9 km/h 20.9 km/h 45 % 0 mm 381.0 W/m2 CLR
16:22 -12.6 °C -18.8 °C 34164.7 hPa NNW 9 km/h   45 % 0 mm 371.0 W/m2 CLR
16:27 -12.8 °C -19.1 °C 34164.7 hPa NNW 29.8 km/h 29.8 km/h 45 % 0 mm 357.0 W/m2 CLR
16:32 -12.8 °C -18.9 °C 34164.7 hPa North 35.7 km/h 35.7 km/h 46 % 0 mm 332.0 W/m2 CLR
16:37 -12.8 °C -18.9 °C 34164.7 hPa North 20.9 km/h 20.9 km/h 46 % 0 mm 323.0 W/m2 CLR
16:42 -12.8 °C -18.9 °C 34164.7 hPa NNE 28.5 km/h 28.5 km/h 46 % 0 mm 311.0 W/m2 CLR
16:47 -12.8 °C -18.9 °C 34164.7 hPa North 35.7 km/h 35.7 km/h 46 % 0 mm 292.0 W/m2 CLR
16:52 -12.8 °C -18.9 °C 34164.7 hPa NW 26.9 km/h 26.9 km/h 46 % 0 mm 274.0 W/m2 CLR
16:57 -12.8 °C -18.9 °C 34164.7 hPa North 29.8 km/h 29.8 km/h 46 % 0 mm 262.0 W/m2 CLR
17:02 -12.8 °C -18.8 °C 34164.7 hPa NNW 26.9 km/h 26.9 km/h 47 % 0 mm 250.0 W/m2 CLR
17:07 -12.8 °C -18.8 °C 34164.7 hPa NW 23.8 km/h 23.8 km/h 47 % 0 mm 227.0 W/m2 CLR
17:12 -12.8 °C -18.8 °C 34164.7 hPa North 17.9 km/h 17.9 km/h 47 % 0 mm 207.0 W/m2 CLR
17:17 -13.2 °C -19.1 °C 34164.7 hPa North 29.8 km/h 29.8 km/h 47 % 0 mm 193.0 W/m2 CLR
17:22 -13.2 °C -18.9 °C 34164.7 hPa NW 38.8 km/h 38.8 km/h 48 % 0 mm 178.0 W/m2 CLR
17:27 -13.2 °C -18.9 °C 34164.7 hPa North 26.9 km/h 26.9 km/h 48 % 0 mm 155.0 W/m2 CLR
17:32 -13.4 °C -19.1 °C 34164.7 hPa North 20.9 km/h 20.9 km/h 49 % 0 mm 134.0 W/m2 CLR
17:37 -13.4 °C -19.1 °C 34178.3 hPa North 29.8 km/h 29.8 km/h 49 % 0 mm 120.0 W/m2 CLR
17:42 -13.4 °C -18.9 °C 34178.3 hPa North 26.9 km/h 26.9 km/h 50 % 0 mm 109.0 W/m2 CLR
17:47 -13.8 °C -19.2 °C 34178.3 hPa NNE 29.8 km/h 29.8 km/h 50 % 0 mm 95.0 W/m2 CLR
17:52 -13.8 °C -19.1 °C 34164.7 hPa NNW 26.9 km/h 26.9 km/h 51 % 0 mm 76.0 W/m2 FEW
17:57 -13.8 °C -19.1 °C 34164.7 hPa North 23.8 km/h 23.8 km/h 51 % 0 mm 63.0 W/m2 SCT
18:02 -14.1 °C -19.3 °C 34178.3 hPa NNW 23.8 km/h 23.8 km/h 51 % 0 mm 54.0 W/m2 SCT
18:07 -14.1 °C -19.3 °C 34178.3 hPa NW 9 km/h 9 km/h 51 % 0 mm 44.0 W/m2 SCT
18:12 -14.1 °C -19.2 °C 34178.3 hPa Calm     52 % 0 mm 35.0 W/m2 BKN
18:17 -14.1 °C -19.2 °C 34178.3 hPa Calm     52 % 0 mm 28.0 W/m2 BKN
18:22 -14.4 °C -19.3 °C 34178.3 hPa Calm     53 % 0 mm 23.0 W/m2 BKN
18:27 -14.4 °C -19.3 °C 34178.3 hPa NNW 12.9 km/h 12.9 km/h 53 % 0 mm 18.0 W/m2 BKN
18:32 -14.4 °C -19.2 °C 34178.3 hPa NNW 17.9 km/h 17.9 km/h 54 % 0 mm 12.0 W/m2 BKN
18:37 -14.7 °C -19.3 °C 34178.3 hPa Calm     55 % 0 mm 9.0 W/m2 BKN
18:42 -14.7 °C -19.3 °C 34178.3 hPa Calm     55 % 0 mm 5.0 W/m2 OVC
18:47 -15 °C -19.5 °C 34188.4 hPa Calm     56 % 0 mm 0.0 W/m2 OVC
18:52 -15.3 °C -19.6 °C 34188.4 hPa Calm     57 % 0 mm 0.0 W/m2 OVC
18:57 -15.3 °C -19.5 °C 34188.4 hPa Calm     58 % 0 mm 0.0 W/m2 CLR
19:02 -15.3 °C -19.4 °C 34188.4 hPa Calm     59 % 0 mm 0.0 W/m2 CLR
19:07 -15.6 °C -19.6 °C 34188.4 hPa Calm     60 % 0 mm 0.0 W/m2 CLR
19:09 -15.6 °C -19.6 °C 34188.4 hPa Calm     60 % 0 mm 0.0 W/m2 CLR
19:14 -15.9 °C -19.7 °C 34198.6 hPa Calm     61 % 0 mm 0.0 W/m2 CLR
19:19 -15.9 °C -19.7 °C 34198.6 hPa Calm     61 % 0 mm 0.0 W/m2 CLR
19:24 -15.9 °C -19.7 °C 34198.6 hPa Calm     61 % 0 mm 0.0 W/m2 CLR
19:29 -16.2 °C -19.9 °C 34198.6 hPa Calm     62 % 0 mm 0.0 W/m2 CLR
19:34 -16.2 °C -19.8 °C 34188.4 hPa Calm     63 % 0 mm 0.0 W/m2 CLR
19:39 -16.2 °C -19.7 °C 34198.6 hPa NW 17.9 km/h 17.9 km/h 64 % 0 mm 0.0 W/m2 CLR
19:44 -16.2 °C -19.9 °C 34198.6 hPa NW 18.2 km/h 18.2 km/h 62 % 0 mm 0.0 W/m2 CLR
19:49 -16.2 °C -20 °C 34198.6 hPa WNW 15 km/h 15 km/h 61 % 0 mm 0.0 W/m2 CLR
19:54 -16.6 °C -20.4 °C 34198.6 hPa Calm     60 % 0 mm 0.0 W/m2 CLR
19:59 -16.8 °C -20.4 °C 34198.6 hPa Calm     62 % 0 mm 0.0 W/m2 CLR
20:04 -16.8 °C -20.2 °C 34198.6 hPa Calm     64 % 0 mm 0.0 W/m2 CLR
20:09 -17.2 °C -20.2 °C 34198.6 hPa West 20.9 km/h 20.9 km/h 67 % 0 mm 0.0 W/m2 CLR
20:14 -17.2 °C -20.1 °C 34198.6 hPa West 12.9 km/h 12.9 km/h 68 % 0 mm 0.0 W/m2 CLR
20:19 -17.2 °C -20.1 °C 34198.6 hPa West 15.6 km/h 15.6 km/h 68 % 0 mm 0.0 W/m2 CLR
20:24 -17.4 °C -20.3 °C 34198.6 hPa West 17.9 km/h 17.9 km/h 69 % 0 mm 0.0 W/m2 CLR
20:29 -17.8 °C -20.6 °C 34212.1 hPa West 15.6 km/h 15.6 km/h 69 % 0 mm 0.0 W/m2 CLR
20:34 -17.8 °C -20.4 °C 34212.1 hPa WNW 17.9 km/h 17.9 km/h 70 % 0 mm 0.0 W/m2 CLR
20:39 -17.4 °C -20.2 °C 34212.1 hPa West 17.9 km/h 17.9 km/h 70 % 0 mm 0.0 W/m2 CLR
20:44 -17.2 °C -19.9 °C 34212.1 hPa WNW 20.9 km/h 20.9 km/h 69 % 0 mm 0.0 W/m2 CLR
20:50 -17.2 °C -20.3 °C 34212.1 hPa WNW 15 km/h 15 km/h 66 % 0 mm 0.0 W/m2 CLR
20:55 -17.2 °C -20.4 °C 34212.1 hPa NW 15 km/h 15 km/h 65 % 0 mm 0.0 W/m2 CLR
21:00 -17.4 °C -20.8 °C 34212.1 hPa Calm     64 % 0 mm 0.0 W/m2 CLR
21:05 -17.8 °C -21.1 °C 34212.1 hPa Calm     64 % 0 mm 0.0 W/m2 CLR
21:10 -17.8 °C -20.8 °C 34212.1 hPa Calm     67 % 0 mm 0.0 W/m2 CLR
21:15 -17.8 °C -20.6 °C 34212.1 hPa Calm     69 % 0 mm 0.0 W/m2 CLR
21:20 -18.1 °C -20.7 °C 34212.1 hPa Calm     70 % 0 mm 0.0 W/m2 CLR
21:25 -18.1 °C -20.7 °C 34212.1 hPa Calm     71 % 0 mm 0.0 W/m2 CLR
21:30 -18.4 °C -20.8 °C 34212.1 hPa Calm     72 % 0 mm 0.0 W/m2 CLR
21:35 -18.4 °C -20.7 °C 34212.1 hPa Calm     73 % 0 mm 0.0 W/m2 CLR
21:40 -18.4 °C -20.7 °C 34222.3 hPa Calm     73 % 0 mm 0.0 W/m2 CLR
21:45 -18.4 °C -20.7 °C 34212.1 hPa Calm     73 % 0 mm 0.0 W/m2 CLR
21:50 -18.4 °C -20.7 °C 34212.1 hPa Calm     74 % 0 mm 0.0 W/m2 CLR
21:55 -18.4 °C -20.7 °C 34222.3 hPa Calm     74 % 0 mm 0.0 W/m2 CLR
22:00 -18.4 °C -20.7 °C 34222.3 hPa Calm     74 % 0 mm 0.0 W/m2 CLR
22:05 -18.4 °C -20.7 °C 34222.3 hPa Calm     74 % 0 mm 0.0 W/m2 CLR
22:10 -18.7 °C -20.8 °C 34222.3 hPa Calm     75 % 0 mm 0.0 W/m2 CLR
22:15 -18.7 °C -20.8 °C 34222.3 hPa Calm     75 % 0 mm 0.0 W/m2 CLR
22:20 -18.7 °C -20.8 °C 34222.3 hPa Calm     75 % 0 mm 0.0 W/m2 CLR
22:25 -19 °C -21.1 °C 34235.8 hPa Calm     76 % 0 mm 0.0 W/m2 CLR
22:30 -18.7 °C -20.7 °C 34235.8 hPa Calm     76 % 0 mm 0.0 W/m2 CLR
22:35 -18.4 °C -20.4 °C 34222.3 hPa Calm     76 % 0 mm 0.0 W/m2 CLR
22:40 -18.7 °C -20.7 °C 34235.8 hPa Calm     76 % 0 mm 0.0 W/m2 CLR
22:45 -18.7 °C -20.7 °C 34222.3 hPa Calm     77 % 0 mm 0.0 W/m2 CLR
22:50 -19 °C -20.9 °C 34222.3 hPa Calm     77 % 0 mm 0.0 W/m2 CLR
22:55 -19 °C -20.9 °C 34222.3 hPa Calm     77 % 0 mm 0.0 W/m2 CLR
23:00 -19 °C -20.9 °C 34222.3 hPa Calm     78 % 0 mm 0.0 W/m2 CLR
23:05 -19 °C -20.9 °C 34222.3 hPa Calm     78 % 0 mm 0.0 W/m2 CLR
23:10 -19.3 °C -21.2 °C 34235.8 hPa Calm     78 % 0 mm 0.0 W/m2 CLR
23:15 -19.3 °C -21.1 °C 34235.8 hPa Calm     79 % 0 mm 0.0 W/m2 CLR
23:20 -19.3 °C -20.9 °C 34235.8 hPa Calm     80 % 0 mm 0.0 W/m2 CLR
23:25 -19.3 °C -20.9 °C 34235.8 hPa Calm     80 % 0 mm 0.0 W/m2 CLR
23:30 -19.3 °C -20.9 °C 34235.8 hPa Calm     81 % 0 mm 0.0 W/m2 CLR
23:35 -19.3 °C -20.9 °C 34235.8 hPa Calm     81 % 0 mm 0.0 W/m2 CLR
23:40 -19.3 °C -20.9 °C 34235.8 hPa Calm     81 % 0 mm 0.0 W/m2 CLR
23:45 -19.3 °C -20.9 °C 34235.8 hPa Calm     81 % 0 mm 0.0 W/m2 CLR
23:50 -19.3 °C -20.8 °C 34235.8 hPa Calm     82 % 0 mm 0.0 W/m2 CLR
23:55 -19.3 °C -20.8 °C 34235.8 hPa Calm     82 % 0 mm 0.0 W/m2 CLR
Lo Temps de Massalio
Compliments of Weather Underground - 1.25 mb